Bent, New Mexico
Current Conditions -  °F | °C
As of 2:35 PM on Monday 24 Nov 2014 (Local Time) from KALM Reporting Station
Clear Clear  
Wind Chill: 52°   Ceiling: Unl
Heat Index: 52°   Visibility: 10mi
Dew Point:   Wind: 10mph
Humidity: 12%   Direction: 360°N
Pressure: 30.08"   Gusts: NA
Location:  33.16°N, 105.86°W
Report Text: KALM 242135Z AUTO 36009KT 10SM CLR 11/M18 A3008 RMK AO2
Loading
Personal Weather Stations






























Interactive Weather Map New forecast layout! Learn more

10-Day Weather Forecast

Advertisements
Track Severe Weather on mobile